sensor_id;sensor_type;location;lat;lon;timestamp;temperature;humidity
1716;DHT22;855;48.824;9.220;2023-05-02T00:00:44;11.80;94.30
1716;DHT22;855;48.824;9.220;2023-05-02T00:03:12;11.80;94.10
1716;DHT22;855;48.824;9.220;2023-05-02T00:05:39;11.80;94.10
1716;DHT22;855;48.824;9.220;2023-05-02T00:08:06;11.80;94.00
1716;DHT22;855;48.824;9.220;2023-05-02T00:10:33;11.80;94.00
1716;DHT22;855;48.824;9.220;2023-05-02T00:13:00;11.70;94.00
1716;DHT22;855;48.824;9.220;2023-05-02T00:15:27;11.70;94.20
1716;DHT22;855;48.824;9.220;2023-05-02T00:17:54;11.70;94.30
1716;DHT22;855;48.824;9.220;2023-05-02T00:20:22;11.70;94.20
1716;DHT22;855;48.824;9.220;2023-05-02T00:22:49;11.70;94.10
1716;DHT22;855;48.824;9.220;2023-05-02T00:25:16;11.70;94.00
1716;DHT22;855;48.824;9.220;2023-05-02T00:27:43;11.70;93.90
1716;DHT22;855;48.824;9.220;2023-05-02T00:30:11;11.60;93.90
1716;DHT22;855;48.824;9.220;2023-05-02T00:32:38;11.60;94.00
1716;DHT22;855;48.824;9.220;2023-05-02T00:35:06;11.50;94.00
1716;DHT22;855;48.824;9.220;2023-05-02T00:37:34;11.40;94.00
1716;DHT22;855;48.824;9.220;2023-05-02T00:40:01;11.30;94.00
1716;DHT22;855;48.824;9.220;2023-05-02T00:42:29;11.30;94.30
1716;DHT22;855;48.824;9.220;2023-05-02T00:45:00;11.30;94.20
1716;DHT22;855;48.824;9.220;2023-05-02T00:47:29;11.30;94.20
1716;DHT22;855;48.824;9.220;2023-05-02T00:49:55;11.20;94.30
1716;DHT22;855;48.824;9.220;2023-05-02T00:52:24;11.20;94.30
1716;DHT22;855;48.824;9.220;2023-05-02T00:54:53;11.20;94.40
1716;DHT22;855;48.824;9.220;2023-05-02T00:57:20;11.20;94.30
1716;DHT22;855;48.824;9.220;2023-05-02T00:59:47;11.20;94.20
1716;DHT22;855;48.824;9.220;2023-05-02T01:02:31;11.30;94.10
1716;DHT22;855;48.824;9.220;2023-05-02T01:05:04;11.20;94.10
1716;DHT22;855;48.824;9.220;2023-05-02T01:07:52;11.20;94.20
1716;DHT22;855;48.824;9.220;2023-05-02T01:10:29;11.10;94.20
1716;DHT22;855;48.824;9.220;2023-05-02T01:13:02;11.10;94.40
1716;DHT22;855;48.824;9.220;2023-05-02T01:15:30;11.10;94.30
1716;DHT22;855;48.824;9.220;2023-05-02T01:18:00;11.10;94.50
1716;DHT22;855;48.824;9.220;2023-05-02T01:20:28;11.00;94.80
1716;DHT22;855;48.824;9.220;2023-05-02T01:23:04;11.00;95.10
1716;DHT22;855;48.824;9.220;2023-05-02T01:25:39;11.10;95.20
1716;DHT22;855;48.824;9.220;2023-05-02T01:28:18;11.00;95.30
1716;DHT22;855;48.824;9.220;2023-05-02T01:30:50;11.10;95.40
1716;DHT22;855;48.824;9.220;2023-05-02T01:33:20;11.10;95.30
1716;DHT22;855;48.824;9.220;2023-05-02T01:35:50;11.00;95.50
1716;DHT22;855;48.824;9.220;2023-05-02T01:38:19;11.00;95.60
1716;DHT22;855;48.824;9.220;2023-05-02T01:40:49;11.00;96.00
1716;DHT22;855;48.824;9.220;2023-05-02T01:43:17;11.00;96.00
1716;DHT22;855;48.824;9.220;2023-05-02T01:45:47;11.10;96.10
1716;DHT22;855;48.824;9.220;2023-05-02T01:48:17;11.10;96.20
1716;DHT22;855;48.824;9.220;2023-05-02T01:50:44;11.00;96.30
1716;DHT22;855;48.824;9.220;2023-05-02T01:53:13;11.10;96.40
1716;DHT22;855;48.824;9.220;2023-05-02T01:55:40;11.10;96.30
1716;DHT22;855;48.824;9.220;2023-05-02T01:58:10;11.10;96.20
1716;DHT22;855;48.824;9.220;2023-05-02T02:00:38;11.20;96.00
1716;DHT22;855;48.824;9.220;2023-05-02T02:03:06;11.20;95.70
1716;DHT22;855;48.824;9.220;2023-05-02T02:05:36;11.20;95.60
1716;DHT22;855;48.824;9.220;2023-05-02T02:08:03;11.20;95.70
1716;DHT22;855;48.824;9.220;2023-05-02T02:10:34;11.20;95.50
1716;DHT22;855;48.824;9.220;2023-05-02T02:13:06;11.20;95.30
1716;DHT22;855;48.824;9.220;2023-05-02T02:15:39;11.20;95.10
1716;DHT22;855;48.824;9.220;2023-05-02T02:18:10;11.10;95.00
1716;DHT22;855;48.824;9.220;2023-05-02T02:20:43;11.10;94.90
1716;DHT22;855;48.824;9.220;2023-05-02T02:23:12;11.00;94.60
1716;DHT22;855;48.824;9.220;2023-05-02T02:25:39;10.80;95.00
1716;DHT22;855;48.824;9.220;2023-05-02T02:28:06;10.90;95.00
1716;DHT22;855;48.824;9.220;2023-05-02T02:30:33;10.90;95.00
1716;DHT22;855;48.824;9.220;2023-05-02T02:33:00;10.90;94.80
1716;DHT22;855;48.824;9.220;2023-05-02T02:35:32;10.70;94.80
1716;DHT22;855;48.824;9.220;2023-05-02T02:38:10;10.70;94.90
1716;DHT22;855;48.824;9.220;2023-05-02T02:40:42;10.70;95.10
1716;DHT22;855;48.824;9.220;2023-05-02T02:43:16;10.70;94.90
1716;DHT22;855;48.824;9.220;2023-05-02T02:45:50;10.80;94.70
1716;DHT22;855;48.824;9.220;2023-05-02T02:48:27;10.70;94.70
1716;DHT22;855;48.824;9.220;2023-05-02T02:51:02;10.80;94.60
1716;DHT22;855;48.824;9.220;2023-05-02T02:53:43;10.60;94.60
1716;DHT22;855;48.824;9.220;2023-05-02T02:56:14;10.60;94.80
1716;DHT22;855;48.824;9.220;2023-05-02T02:58:47;10.50;94.90
1716;DHT22;855;48.824;9.220;2023-05-02T03:01:18;10.50;95.00
1716;DHT22;855;48.824;9.220;2023-05-02T03:03:47;10.40;94.90
1716;DHT22;855;48.824;9.220;2023-05-02T03:06:15;10.40;95.00
1716;DHT22;855;48.824;9.220;2023-05-02T03:08:44;10.40;95.20
1716;DHT22;855;48.824;9.220;2023-05-02T03:11:11;10.30;95.20
1716;DHT22;855;48.824;9.220;2023-05-02T03:13:37;10.20;95.30
1716;DHT22;855;48.824;9.220;2023-05-02T03:16:31;10.30;95.40
1716;DHT22;855;48.824;9.220;2023-05-02T03:18:59;10.30;95.50
1716;DHT22;855;48.824;9.220;2023-05-02T03:21:25;10.30;95.70
1716;DHT22;855;48.824;9.220;2023-05-02T03:23:53;10.30;95.80
1716;DHT22;855;48.824;9.220;2023-05-02T03:26:20;10.40;95.70
1716;DHT22;855;48.824;9.220;2023-05-02T03:28:47;10.40;95.60
1716;DHT22;855;48.824;9.220;2023-05-02T03:31:16;10.50;95.50
1716;DHT22;855;48.824;9.220;2023-05-02T03:33:42;10.50;95.40
1716;DHT22;855;48.824;9.220;2023-05-02T03:36:09;10.50;95.40
1716;DHT22;855;48.824;9.220;2023-05-02T03:38:36;10.60;95.40
1716;DHT22;855;48.824;9.220;2023-05-02T03:41:05;10.50;95.20
1716;DHT22;855;48.824;9.220;2023-05-02T03:43:31;10.50;95.30
1716;DHT22;855;48.824;9.220;2023-05-02T03:46:03;10.50;95.40
1716;DHT22;855;48.824;9.220;2023-05-02T03:48:31;10.50;95.60
1716;DHT22;855;48.824;9.220;2023-05-02T03:50:57;10.60;95.80
1716;DHT22;855;48.824;9.220;2023-05-02T03:53:25;10.60;95.80
1716;DHT22;855;48.824;9.220;2023-05-02T03:55:52;10.60;96.00
1716;DHT22;855;48.824;9.220;2023-05-02T03:58:20;10.70;96.10
1716;DHT22;855;48.824;9.220;2023-05-02T04:00:47;10.70;96.10
1716;DHT22;855;48.824;9.220;2023-05-02T04:03:14;10.70;96.20
1716;DHT22;855;48.824;9.220;2023-05-02T04:05:41;10.70;96.20
1716;DHT22;855;48.824;9.220;2023-05-02T04:08:08;10.80;96.30
1716;DHT22;855;48.824;9.220;2023-05-02T04:10:35;10.90;96.30
1716;DHT22;855;48.824;9.220;2023-05-02T04:13:02;10.90;96.40
1716;DHT22;855;48.824;9.220;2023-05-02T04:15:31;10.90;96.40
1716;DHT22;855;48.824;9.220;2023-05-02T04:17:58;10.90;96.60
1716;DHT22;855;48.824;9.220;2023-05-02T04:20:25;11.00;96.60
1716;DHT22;855;48.824;9.220;2023-05-02T04:22:51;11.00;96.60
1716;DHT22;855;48.824;9.220;2023-05-02T04:25:18;11.00;96.70
1716;DHT22;855;48.824;9.220;2023-05-02T04:27:45;10.90;96.80
1716;DHT22;855;48.824;9.220;2023-05-02T04:30:12;10.80;97.10
1716;DHT22;855;48.824;9.220;2023-05-02T04:32:41;10.70;97.40
1716;DHT22;855;48.824;9.220;2023-05-02T04:35:08;10.70;97.90
1716;DHT22;855;48.824;9.220;2023-05-02T04:37:35;10.60;98.30
1716;DHT22;855;48.824;9.220;2023-05-02T04:40:02;10.70;98.70
1716;DHT22;855;48.824;9.220;2023-05-02T04:42:30;10.80;98.60
1716;DHT22;855;48.824;9.220;2023-05-02T04:44:57;10.80;98.50
1716;DHT22;855;48.824;9.220;2023-05-02T04:47:23;10.90;98.50
1716;DHT22;855;48.824;9.220;2023-05-02T04:49:51;11.00;98.50
1716;DHT22;855;48.824;9.220;2023-05-02T04:52:18;11.10;98.20
1716;DHT22;855;48.824;9.220;2023-05-02T04:54:45;11.20;98.10
1716;DHT22;855;48.824;9.220;2023-05-02T04:57:13;11.20;97.60
1716;DHT22;855;48.824;9.220;2023-05-02T04:59:40;11.10;97.40
1716;DHT22;855;48.824;9.220;2023-05-02T05:02:08;11.20;97.90
1716;DHT22;855;48.824;9.220;2023-05-02T05:04:36;11.20;97.90
1716;DHT22;855;48.824;9.220;2023-05-02T05:07:05;11.40;97.70
1716;DHT22;855;48.824;9.220;2023-05-02T05:09:31;11.40;97.40
1716;DHT22;855;48.824;9.220;2023-05-02T05:11:58;11.50;97.40
1716;DHT22;855;48.824;9.220;2023-05-02T05:14:26;11.60;97.30
1716;DHT22;855;48.824;9.220;2023-05-02T05:16:53;11.60;96.90
1716;DHT22;855;48.824;9.220;2023-05-02T05:19:19;11.80;96.70
1716;DHT22;855;48.824;9.220;2023-05-02T05:21:46;11.90;96.70
1716;DHT22;855;48.824;9.220;2023-05-02T05:24:14;12.00;96.40
1716;DHT22;855;48.824;9.220;2023-05-02T05:26:41;12.10;96.40
1716;DHT22;855;48.824;9.220;2023-05-02T05:29:08;12.20;96.30
1716;DHT22;855;48.824;9.220;2023-05-02T05:31:35;12.40;96.20
1716;DHT22;855;48.824;9.220;2023-05-02T05:34:02;12.40;95.80
1716;DHT22;855;48.824;9.220;2023-05-02T05:36:29;12.60;95.60
1716;DHT22;855;48.824;9.220;2023-05-02T05:38:55;12.60;95.20
1716;DHT22;855;48.824;9.220;2023-05-02T05:41:24;12.60;94.50
1716;DHT22;855;48.824;9.220;2023-05-02T05:43:51;12.60;94.80
1716;DHT22;855;48.824;9.220;2023-05-02T05:46:18;12.70;94.50
1716;DHT22;855;48.824;9.220;2023-05-02T05:48:45;12.50;94.30
1716;DHT22;855;48.824;9.220;2023-05-02T05:51:11;12.40;94.50
1716;DHT22;855;48.824;9.220;2023-05-02T05:53:38;12.40;94.70
1716;DHT22;855;48.824;9.220;2023-05-02T05:56:08;12.40;94.80
1716;DHT22;855;48.824;9.220;2023-05-02T05:58:37;12.40;95.20
1716;DHT22;855;48.824;9.220;2023-05-02T06:01:04;12.40;95.20
1716;DHT22;855;48.824;9.220;2023-05-02T06:03:31;12.50;95.20
1716;DHT22;855;48.824;9.220;2023-05-02T06:05:58;12.60;95.10
1716;DHT22;855;48.824;9.220;2023-05-02T06:08:24;12.70;95.00
1716;DHT22;855;48.824;9.220;2023-05-02T06:10:51;12.90;95.10
1716;DHT22;855;48.824;9.220;2023-05-02T06:13:18;13.10;94.90
1716;DHT22;855;48.824;9.220;2023-05-02T06:15:46;13.20;93.60
1716;DHT22;855;48.824;9.220;2023-05-02T06:18:13;13.40;93.40
1716;DHT22;855;48.824;9.220;2023-05-02T06:20:40;13.50;93.10
1716;DHT22;855;48.824;9.220;2023-05-02T06:23:07;13.50;92.20
1716;DHT22;855;48.824;9.220;2023-05-02T06:25:36;13.40;91.00
1716;DHT22;855;48.824;9.220;2023-05-02T06:28:03;13.50;91.40
1716;DHT22;855;48.824;9.220;2023-05-02T06:30:30;13.40;90.90
1716;DHT22;855;48.824;9.220;2023-05-02T06:32:58;13.40;90.90
1716;DHT22;855;48.824;9.220;2023-05-02T06:35:25;13.50;90.50
1716;DHT22;855;48.824;9.220;2023-05-02T06:37:52;13.70;90.40
1716;DHT22;855;48.824;9.220;2023-05-02T06:40:19;13.90;90.30
1716;DHT22;855;48.824;9.220;2023-05-02T06:42:45;13.80;88.60
1716;DHT22;855;48.824;9.220;2023-05-02T06:45:12;13.70;87.80
1716;DHT22;855;48.824;9.220;2023-05-02T06:47:39;13.70;88.30
1716;DHT22;855;48.824;9.220;2023-05-02T06:50:09;13.70;88.20
1716;DHT22;855;48.824;9.220;2023-05-02T06:52:36;13.70;88.50
1716;DHT22;855;48.824;9.220;2023-05-02T06:55:03;13.70;88.20
1716;DHT22;855;48.824;9.220;2023-05-02T06:57:30;13.70;88.50
1716;DHT22;855;48.824;9.220;2023-05-02T06:59:57;13.60;87.10
1716;DHT22;855;48.824;9.220;2023-05-02T07:02:24;13.50;87.90
1716;DHT22;855;48.824;9.220;2023-05-02T07:04:51;13.40;87.30
1716;DHT22;855;48.824;9.220;2023-05-02T07:07:19;13.30;88.30
1716;DHT22;855;48.824;9.220;2023-05-02T07:09:46;13.30;89.10
1716;DHT22;855;48.824;9.220;2023-05-02T07:12:13;13.40;89.30
1716;DHT22;855;48.824;9.220;2023-05-02T07:14:40;13.60;88.90
1716;DHT22;855;48.824;9.220;2023-05-02T07:17:07;13.60;88.50
1716;DHT22;855;48.824;9.220;2023-05-02T07:19:34;13.60;87.70
1716;DHT22;855;48.824;9.220;2023-05-02T07:22:01;13.60;88.50
1716;DHT22;855;48.824;9.220;2023-05-02T07:24:29;13.50;88.50
1716;DHT22;855;48.824;9.220;2023-05-02T07:26:56;13.40;88.50
1716;DHT22;855;48.824;9.220;2023-05-02T07:29:23;13.30;88.70
1716;DHT22;855;48.824;9.220;2023-05-02T07:31:50;13.40;89.10
1716;DHT22;855;48.824;9.220;2023-05-02T07:34:17;13.40;88.90
1716;DHT22;855;48.824;9.220;2023-05-02T07:36:44;13.50;89.10
1716;DHT22;855;48.824;9.220;2023-05-02T07:39:11;13.50;89.30
1716;DHT22;855;48.824;9.220;2023-05-02T07:41:39;13.70;88.30
1716;DHT22;855;48.824;9.220;2023-05-02T07:44:06;13.60;87.70
1716;DHT22;855;48.824;9.220;2023-05-02T07:46:33;13.50;87.80
1716;DHT22;855;48.824;9.220;2023-05-02T07:49:00;13.60;87.90
1716;DHT22;855;48.824;9.220;2023-05-02T07:51:27;13.60;87.50
1716;DHT22;855;48.824;9.220;2023-05-02T07:53:54;13.50;88.20
1716;DHT22;855;48.824;9.220;2023-05-02T07:56:23;13.50;88.60
1716;DHT22;855;48.824;9.220;2023-05-02T07:58:51;13.50;88.50
1716;DHT22;855;48.824;9.220;2023-05-02T08:01:18;13.40;88.50
1716;DHT22;855;48.824;9.220;2023-05-02T08:03:45;13.50;89.00
1716;DHT22;855;48.824;9.220;2023-05-02T08:06:13;13.70;88.70
1716;DHT22;855;48.824;9.220;2023-05-02T08:08:39;13.70;88.60
1716;DHT22;855;48.824;9.220;2023-05-02T08:11:06;13.90;88.50
1716;DHT22;855;48.824;9.220;2023-05-02T08:13:33;14.00;88.10
1716;DHT22;855;48.824;9.220;2023-05-02T08:16:01;14.10;87.90
1716;DHT22;855;48.824;9.220;2023-05-02T08:18:28;14.20;87.30
1716;DHT22;855;48.824;9.220;2023-05-02T08:20:55;14.30;86.60
1716;DHT22;855;48.824;9.220;2023-05-02T08:23:23;14.20;86.20
1716;DHT22;855;48.824;9.220;2023-05-02T08:25:50;14.30;86.40
1716;DHT22;855;48.824;9.220;2023-05-02T08:28:17;14.30;85.80
1716;DHT22;855;48.824;9.220;2023-05-02T08:30:44;14.30;86.00
1716;DHT22;855;48.824;9.220;2023-05-02T08:33:12;14.40;85.20
1716;DHT22;855;48.824;9.220;2023-05-02T08:35:39;14.60;85.80
1716;DHT22;855;48.824;9.220;2023-05-02T08:38:06;14.80;85.00
1716;DHT22;855;48.824;9.220;2023-05-02T08:40:35;14.80;84.40
1716;DHT22;855;48.824;9.220;2023-05-02T08:43:02;14.80;84.40
1716;DHT22;855;48.824;9.220;2023-05-02T08:45:33;14.90;84.00
1716;DHT22;855;48.824;9.220;2023-05-02T08:48:05;15.00;83.00
1716;DHT22;855;48.824;9.220;2023-05-02T08:50:36;15.00;83.30
1716;DHT22;855;48.824;9.220;2023-05-02T08:53:04;15.10;82.40
1716;DHT22;855;48.824;9.220;2023-05-02T08:55:33;15.10;82.50
1716;DHT22;855;48.824;9.220;2023-05-02T08:58:01;15.30;82.70
1716;DHT22;855;48.824;9.220;2023-05-02T09:00:28;15.50;82.00
1716;DHT22;855;48.824;9.220;2023-05-02T09:03:05;15.70;82.00
1716;DHT22;855;48.824;9.220;2023-05-02T09:05:39;15.80;81.20
1716;DHT22;855;48.824;9.220;2023-05-02T09:08:08;15.80;80.70
1716;DHT22;855;48.824;9.220;2023-05-02T09:10:35;15.90;79.10
1716;DHT22;855;48.824;9.220;2023-05-02T09:13:26;16.00;79.10
1716;DHT22;855;48.824;9.220;2023-05-02T09:15:56;16.20;77.60
1716;DHT22;855;48.824;9.220;2023-05-02T09:18:24;16.40;77.90
1716;DHT22;855;48.824;9.220;2023-05-02T09:20:55;16.50;77.40
1716;DHT22;855;48.824;9.220;2023-05-02T09:23:31;16.60;77.60
1716;DHT22;855;48.824;9.220;2023-05-02T09:26:00;16.70;77.00
1716;DHT22;855;48.824;9.220;2023-05-02T09:28:41;16.60;76.00
1716;DHT22;855;48.824;9.220;2023-05-02T09:31:09;16.60;76.70
1716;DHT22;855;48.824;9.220;2023-05-02T09:33:37;16.50;76.70
1716;DHT22;855;48.824;9.220;2023-05-02T09:36:07;16.80;77.40
1716;DHT22;855;48.824;9.220;2023-05-02T09:38:34;16.80;75.80
1716;DHT22;855;48.824;9.220;2023-05-02T09:41:01;16.70;76.70
1716;DHT22;855;48.824;9.220;2023-05-02T09:43:29;16.90;77.10
1716;DHT22;855;48.824;9.220;2023-05-02T09:45:58;16.90;77.50
1716;DHT22;855;48.824;9.220;2023-05-02T09:48:25;17.20;76.20
1716;DHT22;855;48.824;9.220;2023-05-02T09:50:53;17.40;75.40
1716;DHT22;855;48.824;9.220;2023-05-02T09:53:23;17.30;74.30
1716;DHT22;855;48.824;9.220;2023-05-02T09:55:58;17.20;75.30
1716;DHT22;855;48.824;9.220;2023-05-02T09:58:31;17.20;74.70
1716;DHT22;855;48.824;9.220;2023-05-02T10:00:58;17.10;75.80
1716;DHT22;855;48.824;9.220;2023-05-02T10:03:26;17.30;75.10
1716;DHT22;855;48.824;9.220;2023-05-02T10:05:54;17.20;74.10
1716;DHT22;855;48.824;9.220;2023-05-02T10:08:25;17.30;73.80
1716;DHT22;855;48.824;9.220;2023-05-02T10:10:54;17.40;74.30
1716;DHT22;855;48.824;9.220;2023-05-02T10:13:22;17.50;73.70
1716;DHT22;855;48.824;9.220;2023-05-02T10:15:59;17.60;72.70
1716;DHT22;855;48.824;9.220;2023-05-02T10:18:28;17.70;73.00
1716;DHT22;855;48.824;9.220;2023-05-02T10:21:00;17.90;72.90
1716;DHT22;855;48.824;9.220;2023-05-02T10:23:32;18.20;71.80
1716;DHT22;855;48.824;9.220;2023-05-02T10:26:00;18.50;70.60
1716;DHT22;855;48.824;9.220;2023-05-02T10:28:29;18.70;71.20
1716;DHT22;855;48.824;9.220;2023-05-02T10:30:59;18.80;67.70
1716;DHT22;855;48.824;9.220;2023-05-02T10:33:28;18.80;68.90
1716;DHT22;855;48.824;9.220;2023-05-02T10:35:56;19.00;66.70
1716;DHT22;855;48.824;9.220;2023-05-02T10:38:24;19.10;66.50
1716;DHT22;855;48.824;9.220;2023-05-02T10:40:57;18.80;66.50
1716;DHT22;855;48.824;9.220;2023-05-02T10:43:30;19.00;66.50
1716;DHT22;855;48.824;9.220;2023-05-02T10:45:57;19.20;67.20
1716;DHT22;855;48.824;9.220;2023-05-02T10:48:26;19.40;65.90
1716;DHT22;855;48.824;9.220;2023-05-02T10:50:55;19.60;64.40
1716;DHT22;855;48.824;9.220;2023-05-02T10:53:30;19.60;62.80
1716;DHT22;855;48.824;9.220;2023-05-02T10:56:19;19.30;63.80
1716;DHT22;855;48.824;9.220;2023-05-02T10:58:47;19.30;63.80
1716;DHT22;855;48.824;9.220;2023-05-02T11:01:34;19.30;63.60
1716;DHT22;855;48.824;9.220;2023-05-02T11:04:03;19.30;62.80
1716;DHT22;855;48.824;9.220;2023-05-02T11:06:32;19.50;62.80
1716;DHT22;855;48.824;9.220;2023-05-02T11:09:32;19.60;63.60
1716;DHT22;855;48.824;9.220;2023-05-02T11:12:01;19.90;61.40
1716;DHT22;855;48.824;9.220;2023-05-02T11:14:42;20.00;60.10
1716;DHT22;855;48.824;9.220;2023-05-02T11:17:11;19.90;61.00
1716;DHT22;855;48.824;9.220;2023-05-02T11:22:56;19.50;63.10
1716;DHT22;855;48.824;9.220;2023-05-02T11:25:34;19.50;64.00
1716;DHT22;855;48.824;9.220;2023-05-02T11:28:05;19.40;64.90
1716;DHT22;855;48.824;9.220;2023-05-02T11:30:42;19.30;63.60
1716;DHT22;855;48.824;9.220;2023-05-02T11:33:14;19.20;62.30
1716;DHT22;855;48.824;9.220;2023-05-02T11:35:42;19.00;61.40
1716;DHT22;855;48.824;9.220;2023-05-02T11:38:12;19.20;64.00
1716;DHT22;855;48.824;9.220;2023-05-02T11:40:39;19.30;62.80
1716;DHT22;855;48.824;9.220;2023-05-02T11:43:15;19.20;63.40
1716;DHT22;855;48.824;9.220;2023-05-02T11:45:42;19.20;63.60
1716;DHT22;855;48.824;9.220;2023-05-02T11:48:13;19.30;62.70
1716;DHT22;855;48.824;9.220;2023-05-02T11:50:44;19.30;62.60
1716;DHT22;855;48.824;9.220;2023-05-02T11:53:12;19.10;58.90
1716;DHT22;855;48.824;9.220;2023-05-02T11:55:47;18.90;61.00
1716;DHT22;855;48.824;9.220;2023-05-02T11:58:18;18.80;62.00
1716;DHT22;855;48.824;9.220;2023-05-02T12:00:46;18.80;61.60
1716;DHT22;855;48.824;9.220;2023-05-02T12:03:25;19.00;61.90
1716;DHT22;855;48.824;9.220;2023-05-02T12:05:52;19.00;60.30
1716;DHT22;855;48.824;9.220;2023-05-02T12:08:20;19.00;60.20
1716;DHT22;855;48.824;9.220;2023-05-02T12:10:49;19.30;60.70
1716;DHT22;855;48.824;9.220;2023-05-02T12:13:19;19.50;60.70
1716;DHT22;855;48.824;9.220;2023-05-02T12:15:47;19.30;60.10
1716;DHT22;855;48.824;9.220;2023-05-02T12:18:15;19.40;61.90
1716;DHT22;855;48.824;9.220;2023-05-02T12:20:42;19.50;61.10
1716;DHT22;855;48.824;9.220;2023-05-02T12:23:10;19.30;59.90
1716;DHT22;855;48.824;9.220;2023-05-02T12:25:38;19.00;60.40
1716;DHT22;855;48.824;9.220;2023-05-02T12:28:05;18.60;61.40
1716;DHT22;855;48.824;9.220;2023-05-02T12:30:35;18.20;63.40
1716;DHT22;855;48.824;9.220;2023-05-02T12:33:03;18.00;66.30
1716;DHT22;855;48.824;9.220;2023-05-02T12:35:31;17.90;68.10
1716;DHT22;855;48.824;9.220;2023-05-02T12:38:13;17.80;69.30
1716;DHT22;855;48.824;9.220;2023-05-02T12:40:48;17.70;70.50
1716;DHT22;855;48.824;9.220;2023-05-02T12:43:17;17.80;72.30
1716;DHT22;855;48.824;9.220;2023-05-02T12:45:48;18.00;73.90
1716;DHT22;855;48.824;9.220;2023-05-02T12:48:19;18.10;71.30
1716;DHT22;855;48.824;9.220;2023-05-02T12:50:47;18.20;72.30
1716;DHT22;855;48.824;9.220;2023-05-02T12:53:14;18.30;70.00
1716;DHT22;855;48.824;9.220;2023-05-02T12:55:41;18.20;70.40
1716;DHT22;855;48.824;9.220;2023-05-02T12:58:09;18.10;69.00
1716;DHT22;855;48.824;9.220;2023-05-02T13:00:39;18.30;68.50
1716;DHT22;855;48.824;9.220;2023-05-02T13:03:08;18.50;68.50
1716;DHT22;855;48.824;9.220;2023-05-02T13:05:36;18.70;67.90
1716;DHT22;855;48.824;9.220;2023-05-02T13:08:03;18.60;68.20
1716;DHT22;855;48.824;9.220;2023-05-02T13:10:30;18.80;68.20
1716;DHT22;855;48.824;9.220;2023-05-02T13:12:57;18.70;66.50
1716;DHT22;855;48.824;9.220;2023-05-02T13:15:24;18.90;66.30
1716;DHT22;855;48.824;9.220;2023-05-02T13:17:51;19.00;64.40
1716;DHT22;855;48.824;9.220;2023-05-02T13:20:20;19.10;63.90
1716;DHT22;855;48.824;9.220;2023-05-02T13:22:47;19.10;63.20
1716;DHT22;855;48.824;9.220;2023-05-02T13:25:13;19.10;61.40
1716;DHT22;855;48.824;9.220;2023-05-02T13:27:40;19.30;61.20
1716;DHT22;855;48.824;9.220;2023-05-02T13:30:08;19.40;62.40
1716;DHT22;855;48.824;9.220;2023-05-02T13:32:38;19.60;59.90
1716;DHT22;855;48.824;9.220;2023-05-02T13:35:06;19.70;59.80
1716;DHT22;855;48.824;9.220;2023-05-02T13:37:34;19.60;59.20
1716;DHT22;855;48.824;9.220;2023-05-02T13:40:01;19.50;59.00
1716;DHT22;855;48.824;9.220;2023-05-02T13:42:29;19.20;58.80
1716;DHT22;855;48.824;9.220;2023-05-02T13:44:56;19.20;59.50
1716;DHT22;855;48.824;9.220;2023-05-02T13:47:23;19.50;58.90
1716;DHT22;855;48.824;9.220;2023-05-02T13:49:50;19.60;57.20
1716;DHT22;855;48.824;9.220;2023-05-02T13:52:17;19.70;57.50
1716;DHT22;855;48.824;9.220;2023-05-02T13:54:46;19.70;57.30
1716;DHT22;855;48.824;9.220;2023-05-02T13:57:13;20.00;57.50
1716;DHT22;855;48.824;9.220;2023-05-02T13:59:40;20.10;55.40
1716;DHT22;855;48.824;9.220;2023-05-02T14:02:06;20.10;55.00
1716;DHT22;855;48.824;9.220;2023-05-02T14:04:33;20.10;56.50
1716;DHT22;855;48.824;9.220;2023-05-02T14:07:00;20.20;59.30
1716;DHT22;855;48.824;9.220;2023-05-02T14:09:27;20.30;59.90
1716;DHT22;855;48.824;9.220;2023-05-02T14:11:55;20.30;58.50
1716;DHT22;855;48.824;9.220;2023-05-02T14:14:23;20.20;58.50
1716;DHT22;855;48.824;9.220;2023-05-02T14:16:50;20.10;59.80
1716;DHT22;855;48.824;9.220;2023-05-02T14:19:17;20.10;59.30
1716;DHT22;855;48.824;9.220;2023-05-02T14:21:43;20.00;57.40
1716;DHT22;855;48.824;9.220;2023-05-02T14:24:11;20.00;57.70
1716;DHT22;855;48.824;9.220;2023-05-02T14:26:39;20.10;57.80
1716;DHT22;855;48.824;9.220;2023-05-02T14:29:07;20.00;56.00
1716;DHT22;855;48.824;9.220;2023-05-02T14:31:34;19.90;57.40
1716;DHT22;855;48.824;9.220;2023-05-02T14:34:01;19.70;56.40
1716;DHT22;855;48.824;9.220;2023-05-02T14:36:28;19.50;58.20
1716;DHT22;855;48.824;9.220;2023-05-02T14:38:56;19.40;57.70
1716;DHT22;855;48.824;9.220;2023-05-02T14:41:23;19.20;58.70
1716;DHT22;855;48.824;9.220;2023-05-02T14:43:52;19.30;59.20
1716;DHT22;855;48.824;9.220;2023-05-02T14:46:20;19.20;59.20
1716;DHT22;855;48.824;9.220;2023-05-02T14:48:48;19.10;59.00
1716;DHT22;855;48.824;9.220;2023-05-02T14:51:15;19.10;58.50
1716;DHT22;855;48.824;9.220;2023-05-02T14:53:41;19.30;57.90
1716;DHT22;855;48.824;9.220;2023-05-02T14:56:12;19.30;57.30
1716;DHT22;855;48.824;9.220;2023-05-02T14:58:40;19.50;56.20
1716;DHT22;855;48.824;9.220;2023-05-02T15:01:15;19.70;56.20
1716;DHT22;855;48.824;9.220;2023-05-02T15:03:43;20.00;55.70
1716;DHT22;855;48.824;9.220;2023-05-02T15:06:12;20.00;54.40
1716;DHT22;855;48.824;9.220;2023-05-02T15:08:38;20.10;55.00
1716;DHT22;855;48.824;9.220;2023-05-02T15:11:06;20.10;52.60
1716;DHT22;855;48.824;9.220;2023-05-02T15:13:34;20.00;51.40
1716;DHT22;855;48.824;9.220;2023-05-02T15:16:01;20.00;49.40
1716;DHT22;855;48.824;9.220;2023-05-02T15:18:29;19.90;51.20
1716;DHT22;855;48.824;9.220;2023-05-02T15:20:57;20.00;51.20
1716;DHT22;855;48.824;9.220;2023-05-02T15:23:24;20.10;52.30
1716;DHT22;855;48.824;9.220;2023-05-02T15:25:51;20.20;53.70
1716;DHT22;855;48.824;9.220;2023-05-02T15:28:18;20.00;53.80
1716;DHT22;855;48.824;9.220;2023-05-02T15:30:45;19.70;52.70
1716;DHT22;855;48.824;9.220;2023-05-02T15:33:13;19.50;53.30
1716;DHT22;855;48.824;9.220;2023-05-02T15:35:51;19.50;53.90
1716;DHT22;855;48.824;9.220;2023-05-02T15:38:19;19.50;53.20
1716;DHT22;855;48.824;9.220;2023-05-02T15:40:53;19.80;53.80
1716;DHT22;855;48.824;9.220;2023-05-02T15:43:20;19.90;54.40
1716;DHT22;855;48.824;9.220;2023-05-02T15:45:50;19.80;55.30
1716;DHT22;855;48.824;9.220;2023-05-02T15:48:17;19.70;54.40
1716;DHT22;855;48.824;9.220;2023-05-02T15:50:44;19.70;52.90
1716;DHT22;855;48.824;9.220;2023-05-02T15:53:11;19.50;49.90
1716;DHT22;855;48.824;9.220;2023-05-02T15:55:40;19.40;49.20
1716;DHT22;855;48.824;9.220;2023-05-02T15:58:08;19.50;49.40
1716;DHT22;855;48.824;9.220;2023-05-02T16:00:35;19.50;48.20
1716;DHT22;855;48.824;9.220;2023-05-02T16:03:03;19.40;50.40
1716;DHT22;855;48.824;9.220;2023-05-02T16:05:30;19.50;49.90
1716;DHT22;855;48.824;9.220;2023-05-02T16:07:57;19.60;47.90
1716;DHT22;855;48.824;9.220;2023-05-02T16:10:24;19.60;47.90
1716;DHT22;855;48.824;9.220;2023-05-02T16:12:53;19.40;48.90
1716;DHT22;855;48.824;9.220;2023-05-02T16:15:20;19.30;49.60
1716;DHT22;855;48.824;9.220;2023-05-02T16:17:49;19.30;48.60
1716;DHT22;855;48.824;9.220;2023-05-02T16:20:16;19.30;49.70
1716;DHT22;855;48.824;9.220;2023-05-02T16:22:43;19.30;49.30
1716;DHT22;855;48.824;9.220;2023-05-02T16:25:10;19.20;50.10
1716;DHT22;855;48.824;9.220;2023-05-02T16:27:37;19.30;50.60
1716;DHT22;855;48.824;9.220;2023-05-02T16:30:07;19.40;50.40